createdAt,value
2023-09-26T00:00:35.072Z,15.10
2023-09-26T00:03:37.107Z,15.10
2023-09-26T00:06:39.826Z,15.10
2023-09-26T00:09:41.899Z,15.10
2023-09-26T00:12:44.319Z,15.00
2023-09-26T00:15:46.484Z,15.00
2023-09-26T00:18:48.634Z,14.90
2023-09-26T00:21:51.252Z,14.90
2023-09-26T00:24:53.983Z,14.90
2023-09-26T00:27:56.014Z,14.90
2023-09-26T00:30:58.097Z,14.80
2023-09-26T00:34:00.387Z,14.90
2023-09-26T00:37:02.445Z,14.90
2023-09-26T00:40:05.261Z,14.80
2023-09-26T00:43:07.139Z,14.70
2023-09-26T00:46:11.690Z,14.60
2023-09-26T00:49:13.961Z,14.70
2023-09-26T00:52:15.969Z,14.80
2023-09-26T00:55:21.647Z,14.70
2023-09-26T00:58:24.487Z,14.70
2023-09-26T01:01:30.815Z,14.60
2023-09-26T01:04:33.513Z,14.70
2023-09-26T01:07:36.257Z,14.70
2023-09-26T01:10:38.913Z,14.70
2023-09-26T01:13:41.014Z,14.70
2023-09-26T01:16:43.098Z,14.60
2023-09-26T01:19:45.085Z,14.50
2023-09-26T01:22:47.879Z,14.50
2023-09-26T01:25:50.063Z,14.50
2023-09-26T01:28:52.544Z,14.50
2023-09-26T01:31:55.379Z,14.40
2023-09-26T01:34:57.323Z,14.40
2023-09-26T01:37:59.551Z,14.50
2023-09-26T01:41:01.421Z,14.60
2023-09-26T01:44:03.305Z,14.60
2023-09-26T01:47:05.347Z,14.40
2023-09-26T01:50:08.494Z,14.40
2023-09-26T01:53:14.420Z,14.40
2023-09-26T01:56:16.940Z,14.50
2023-09-26T01:59:19.053Z,14.60
2023-09-26T02:02:21.007Z,14.50
2023-09-26T02:05:23.102Z,14.60
2023-09-26T02:08:25.405Z,14.60
2023-09-26T02:11:27.357Z,14.70
2023-09-26T02:14:29.176Z,14.70
2023-09-26T02:17:31.424Z,14.60
2023-09-26T02:20:33.534Z,14.40
2023-09-26T02:23:35.670Z,14.50
2023-09-26T02:26:37.535Z,14.50
2023-09-26T02:29:39.346Z,14.50
2023-09-26T02:32:41.523Z,14.60
2023-09-26T02:35:43.660Z,14.60
2023-09-26T02:38:45.598Z,14.60
2023-09-26T02:41:47.429Z,14.50
2023-09-26T02:44:49.899Z,14.40
2023-09-26T02:47:52.006Z,14.40
2023-09-26T02:51:03.629Z,14.40
2023-09-26T02:54:05.573Z,14.40
2023-09-26T02:57:09.857Z,14.40
2023-09-26T03:00:19.545Z,14.40
2023-09-26T03:03:21.952Z,14.40
2023-09-26T03:06:23.919Z,14.40
2023-09-26T03:09:25.765Z,14.30
2023-09-26T03:12:27.753Z,14.30
2023-09-26T03:15:29.735Z,14.20
2023-09-26T03:18:32.079Z,14.20
2023-09-26T03:21:33.989Z,14.10
2023-09-26T03:24:35.872Z,13.90
2023-09-26T03:27:37.811Z,14.00
2023-09-26T03:30:45.084Z,14.00
2023-09-26T03:33:47.055Z,13.90
2023-09-26T03:36:49.478Z,13.90
2023-09-26T03:39:51.482Z,13.90
2023-09-26T03:42:54.214Z,13.90
2023-09-26T03:46:03.053Z,13.90
2023-09-26T03:49:05.029Z,13.80
2023-09-26T03:52:07.184Z,13.80
2023-09-26T03:55:09.651Z,13.80
2023-09-26T03:58:11.678Z,13.90
2023-09-26T04:01:14.769Z,13.90
2023-09-26T04:04:16.714Z,14.00
2023-09-26T04:07:19.010Z,14.00
2023-09-26T04:10:21.078Z,14.00
2023-09-26T04:13:23.106Z,14.00
2023-09-26T04:16:25.152Z,14.10
2023-09-26T04:19:27.196Z,14.10
2023-09-26T04:22:30.502Z,14.00
2023-09-26T04:25:35.264Z,13.90
2023-09-26T04:28:37.173Z,13.80
2023-09-26T04:31:39.190Z,13.80
2023-09-26T04:34:41.308Z,13.90
2023-09-26T04:37:43.798Z,13.90
2023-09-26T04:40:45.752Z,13.90
2023-09-26T04:43:47.630Z,13.90
2023-09-26T04:46:49.695Z,13.80
2023-09-26T04:49:51.811Z,13.80
2023-09-26T04:52:53.701Z,13.80
2023-09-26T04:55:55.768Z,13.80
2023-09-26T04:58:59.773Z,13.70
2023-09-26T05:02:04.315Z,13.70
2023-09-26T05:05:06.707Z,13.70
2023-09-26T05:08:08.593Z,13.70
2023-09-26T05:11:15.717Z,13.70
2023-09-26T05:14:17.549Z,13.50
2023-09-26T05:17:22.439Z,13.40
2023-09-26T05:20:25.461Z,13.60
2023-09-26T05:23:27.834Z,13.60
2023-09-26T05:26:29.776Z,13.60
2023-09-26T05:29:34.508Z,13.60
2023-09-26T05:32:37.088Z,13.60
2023-09-26T05:35:39.368Z,13.60
2023-09-26T05:38:41.176Z,13.70
2023-09-26T05:41:43.226Z,13.60
2023-09-26T05:44:45.097Z,13.70
2023-09-26T05:47:47.119Z,13.80
2023-09-26T05:50:48.970Z,13.80
2023-09-26T05:54:25.439Z,13.80
2023-09-26T05:57:32.993Z,13.70
2023-09-26T06:00:37.297Z,13.90
2023-09-26T06:03:39.799Z,13.90
2023-09-26T06:06:41.931Z,13.80
2023-09-26T06:09:56.907Z,13.80
2023-09-26T06:13:05.854Z,13.70
2023-09-26T06:16:08.380Z,13.80
2023-09-26T06:19:10.411Z,13.90
2023-09-26T06:22:12.434Z,13.80
2023-09-26T06:25:14.336Z,13.90
2023-09-26T06:28:16.243Z,13.90
2023-09-26T06:31:18.259Z,13.90
2023-09-26T06:34:20.260Z,13.90
2023-09-26T06:37:22.190Z,14.00
2023-09-26T06:40:24.558Z,14.10
2023-09-26T06:43:26.407Z,14.20
2023-09-26T06:46:29.630Z,14.20
2023-09-26T06:49:31.713Z,14.20
2023-09-26T06:52:34.908Z,14.30
2023-09-26T06:55:40.533Z,14.30
2023-09-26T06:58:42.638Z,14.40
2023-09-26T07:01:44.786Z,14.50
2023-09-26T07:04:53.415Z,14.60
2023-09-26T07:07:55.828Z,14.80
2023-09-26T07:11:13.181Z,14.90
2023-09-26T07:14:17.352Z,15.00
2023-09-26T07:17:20.789Z,15.00
2023-09-26T07:20:22.856Z,15.20
2023-09-26T07:23:24.996Z,15.20
2023-09-26T07:26:29.446Z,15.30
2023-09-26T07:29:31.324Z,15.50
2023-09-26T07:32:33.702Z,15.60
2023-09-26T07:35:35.837Z,15.80
2023-09-26T07:38:38.525Z,15.90
2023-09-26T07:41:40.382Z,16.00
2023-09-26T07:44:42.237Z,16.00
2023-09-26T07:47:45.400Z,16.10
2023-09-26T07:50:47.260Z,16.20
2023-09-26T07:53:49.652Z,16.40
2023-09-26T07:56:51.902Z,16.50
2023-09-26T07:59:54.331Z,16.60
2023-09-26T08:02:56.209Z,16.70
2023-09-26T08:06:05.216Z,16.80
2023-09-26T08:09:07.404Z,16.90
2023-09-26T08:12:09.840Z,17.10
2023-09-26T08:15:12.814Z,17.30
2023-09-26T08:18:14.830Z,17.40
2023-09-26T08:21:17.660Z,17.60
2023-09-26T08:24:19.812Z,17.70
2023-09-26T08:27:22.527Z,18.00
2023-09-26T08:30:24.567Z,18.10
2023-09-26T08:33:29.647Z,18.30
2023-09-26T08:36:33.501Z,18.30
2023-09-26T08:39:35.410Z,18.40
2023-09-26T08:42:41.108Z,18.50
2023-09-26T08:45:42.995Z,18.70
2023-09-26T08:48:46.186Z,18.80
2023-09-26T08:51:48.100Z,18.90
2023-09-26T08:54:50.458Z,18.90
2023-09-26T08:57:53.238Z,19.00
2023-09-26T09:00:57.358Z,19.00
2023-09-26T09:04:00.019Z,19.10
2023-09-26T09:07:05.828Z,19.20
2023-09-26T09:10:09.557Z,19.30
2023-09-26T09:13:11.735Z,19.40
2023-09-26T09:16:21.784Z,19.50
2023-09-26T09:19:50.600Z,19.60
2023-09-26T09:23:06.892Z,19.70
2023-09-26T09:26:13.506Z,19.80
2023-09-26T09:29:21.368Z,20.00
2023-09-26T09:32:58.727Z,20.10
2023-09-26T09:36:00.610Z,20.10
2023-09-26T09:39:04.214Z,20.20
2023-09-26T09:42:09.422Z,20.30
2023-09-26T09:45:11.520Z,20.30
2023-09-26T09:48:15.186Z,20.50
2023-09-26T09:51:17.759Z,20.50
2023-09-26T09:54:22.142Z,20.70
2023-09-26T10:04:25.145Z,20.90
2023-09-26T10:07:29.104Z,21.00
2023-09-26T10:10:42.037Z,21.00
2023-09-26T10:13:43.943Z,21.00
2023-09-26T10:16:46.137Z,21.00
2023-09-26T10:20:01.723Z,21.10
2023-09-26T10:23:12.118Z,21.40
2023-09-26T10:26:14.283Z,21.40
2023-09-26T10:29:16.131Z,21.50
2023-09-26T10:32:30.778Z,21.50
2023-09-26T10:35:33.647Z,21.60
2023-09-26T10:38:35.726Z,21.80
2023-09-26T10:45:00.432Z,21.80
2023-09-26T10:51:30.638Z,22.00
2023-09-26T10:54:37.066Z,22.00
2023-09-26T10:57:40.270Z,22.00
2023-09-26T11:05:41.801Z,22.20
2023-09-26T11:08:44.421Z,22.40
2023-09-26T11:11:46.847Z,22.30
2023-09-26T11:14:48.739Z,22.30
2023-09-26T11:17:51.259Z,22.20
2023-09-26T11:21:02.470Z,22.20
2023-09-26T11:24:21.453Z,22.20
2023-09-26T11:27:23.305Z,22.40
2023-09-26T11:30:25.534Z,22.40
2023-09-26T11:33:27.849Z,22.50
2023-09-26T11:36:30.124Z,22.50
2023-09-26T11:39:32.120Z,22.40
2023-09-26T11:42:43.236Z,22.40
2023-09-26T11:45:45.868Z,22.30
2023-09-26T11:48:47.684Z,22.30
2023-09-26T11:51:53.030Z,22.30
2023-09-26T11:54:56.150Z,22.30
2023-09-26T11:58:00.247Z,22.30
2023-09-26T12:01:06.261Z,22.30
2023-09-26T12:04:10.562Z,22.30
2023-09-26T12:07:12.370Z,22.30
2023-09-26T12:10:14.502Z,22.50
2023-09-26T12:13:16.499Z,22.50
2023-09-26T12:16:18.467Z,22.50
2023-09-26T12:19:32.759Z,22.60
2023-09-26T12:22:36.127Z,22.60
2023-09-26T12:25:38.064Z,22.60
2023-09-26T12:28:40.485Z,22.60
2023-09-26T12:31:46.367Z,22.70
2023-09-26T12:34:49.387Z,22.80
2023-09-26T12:38:02.164Z,22.80
2023-09-26T12:41:04.626Z,22.80
2023-09-26T12:44:09.806Z,22.70
2023-09-26T12:47:14.947Z,22.60
2023-09-26T12:50:16.748Z,22.50
2023-09-26T12:56:34.934Z,22.30
2023-09-26T12:59:37.727Z,22.30
2023-09-26T13:02:40.741Z,22.30
2023-09-26T13:05:43.198Z,22.30
2023-09-26T13:08:45.674Z,22.30
2023-09-26T13:11:47.464Z,22.30
2023-09-26T13:14:49.749Z,22.40
2023-09-26T13:17:51.946Z,22.40
2023-09-26T13:20:54.261Z,22.30
2023-09-26T13:23:56.580Z,22.30
2023-09-26T13:26:58.476Z,22.30
2023-09-26T13:30:00.537Z,22.40
2023-09-26T13:33:02.481Z,22.40
2023-09-26T13:36:05.234Z,22.40
2023-09-26T13:39:07.519Z,22.40
2023-09-26T13:42:09.713Z,22.30
2023-09-26T13:45:11.621Z,22.30
2023-09-26T13:48:15.000Z,22.30
2023-09-26T13:51:16.984Z,22.20
2023-09-26T13:54:22.222Z,22.10
2023-09-26T13:57:24.032Z,22.10
2023-09-26T14:00:28.716Z,22.10
2023-09-26T14:03:32.538Z,22.10
2023-09-26T14:06:34.652Z,22.10
2023-09-26T14:09:37.076Z,22.10
2023-09-26T14:12:39.060Z,22.20
2023-09-26T14:15:41.021Z,22.30
2023-09-26T14:18:43.142Z,22.30
2023-09-26T14:21:45.106Z,22.20
2023-09-26T14:24:52.981Z,22.20
2023-09-26T14:27:56.109Z,22.10
2023-09-26T14:31:04.054Z,22.10
2023-09-26T14:34:07.098Z,22.10
2023-09-26T14:37:09.413Z,22.10
2023-09-26T14:40:15.042Z,22.10
2023-09-26T14:43:17.119Z,22.00
2023-09-26T14:46:19.072Z,22.00
2023-09-26T14:49:20.894Z,21.90
2023-09-26T14:52:23.178Z,21.90
2023-09-26T14:55:25.074Z,21.90
2023-09-26T14:58:26.901Z,21.80
2023-09-26T15:01:28.696Z,21.80
2023-09-26T15:04:31.116Z,21.80
2023-09-26T15:07:33.756Z,21.80
2023-09-26T15:10:38.378Z,21.80
2023-09-26T15:13:40.670Z,21.80
2023-09-26T15:16:42.765Z,21.70
2023-09-26T15:19:45.762Z,21.70
2023-09-26T15:22:47.876Z,21.60
2023-09-26T15:25:49.969Z,21.60
2023-09-26T15:28:52.328Z,21.70
2023-09-26T15:31:54.278Z,21.70
2023-09-26T15:34:57.883Z,21.60
2023-09-26T15:37:59.700Z,21.50
2023-09-26T15:41:19.022Z,21.50
2023-09-26T15:44:21.234Z,21.50
2023-09-26T15:47:23.314Z,21.40
2023-09-26T15:50:31.380Z,21.40
2023-09-26T15:53:33.310Z,21.40
2023-09-26T15:56:35.274Z,21.40
2023-09-26T15:59:39.598Z,21.40
2023-09-26T16:02:41.473Z,21.40
2023-09-26T16:05:43.586Z,21.40
2023-09-26T16:08:47.622Z,21.40
2023-09-26T16:11:50.722Z,21.40
2023-09-26T16:14:52.824Z,21.40
2023-09-26T16:17:56.241Z,21.30
2023-09-26T16:20:58.224Z,21.30
2023-09-26T16:24:01.603Z,21.30
2023-09-26T16:27:03.691Z,21.20
2023-09-26T16:30:07.092Z,21.20
2023-09-26T16:33:09.156Z,21.20
2023-09-26T16:36:23.490Z,21.10
2023-09-26T16:39:26.134Z,21.10
2023-09-26T16:42:28.313Z,21.00
2023-09-26T16:45:30.092Z,21.00
2023-09-26T16:48:44.014Z,20.90
2023-09-26T16:51:45.845Z,20.90
2023-09-26T16:54:47.693Z,20.90
2023-09-26T16:57:49.527Z,20.90
2023-09-26T17:00:51.836Z,20.90
2023-09-26T17:03:54.060Z,20.90
2023-09-26T17:06:57.788Z,20.80
2023-09-26T17:09:59.713Z,20.80
2023-09-26T17:13:01.682Z,20.70
2023-09-26T17:16:04.050Z,20.60
2023-09-26T17:19:06.246Z,20.60
2023-09-26T17:22:08.239Z,20.50
2023-09-26T17:25:10.532Z,20.50
2023-09-26T17:28:12.631Z,20.40
2023-09-26T17:31:14.671Z,20.40
2023-09-26T17:34:16.696Z,20.40
2023-09-26T17:37:18.549Z,20.30
2023-09-26T17:40:20.970Z,20.20
2023-09-26T17:43:23.935Z,20.10
2023-09-26T17:46:25.842Z,20.00
2023-09-26T17:49:27.915Z,19.90
2023-09-26T17:52:29.712Z,19.80
2023-09-26T17:55:31.649Z,19.80
2023-09-26T17:58:33.636Z,19.80
2023-09-26T18:01:35.664Z,19.80
2023-09-26T18:04:37.646Z,19.70
2023-09-26T18:07:40.645Z,19.70
2023-09-26T18:10:42.786Z,19.70
2023-09-26T18:13:44.782Z,19.60
2023-09-26T18:16:46.911Z,19.50
2023-09-26T18:19:49.873Z,19.50
2023-09-26T18:22:51.720Z,19.50
2023-09-26T18:25:53.682Z,19.50
2023-09-26T18:28:55.624Z,19.40
2023-09-26T18:31:57.581Z,19.30
2023-09-26T18:34:59.823Z,19.30
2023-09-26T18:38:03.715Z,19.30
2023-09-26T18:41:07.487Z,19.20
2023-09-26T18:44:09.759Z,19.20
2023-09-26T18:47:12.943Z,19.10
2023-09-26T18:50:15.239Z,19.10
2023-09-26T18:53:17.824Z,19.10
2023-09-26T18:56:20.377Z,19.00
2023-09-26T18:59:22.403Z,19.10
2023-09-26T19:02:24.364Z,19.00
2023-09-26T19:05:27.204Z,19.00
2023-09-26T19:08:29.216Z,19.00
2023-09-26T19:11:30.989Z,18.90
2023-09-26T19:14:33.149Z,18.90
2023-09-26T19:17:35.188Z,18.80
2023-09-26T19:20:37.066Z,18.70
2023-09-26T19:23:38.861Z,18.70
2023-09-26T19:26:41.720Z,18.70
2023-09-26T19:29:44.343Z,18.60
2023-09-26T19:32:46.211Z,18.60
2023-09-26T19:35:48.346Z,18.60
2023-09-26T19:38:51.478Z,18.50
2023-09-26T19:41:53.217Z,18.40
2023-09-26T19:44:54.985Z,18.40
2023-09-26T19:47:56.873Z,18.40
2023-09-26T19:51:02.048Z,18.30
2023-09-26T19:54:04.968Z,18.20
2023-09-26T19:57:06.834Z,18.20
2023-09-26T20:00:12.576Z,18.20
2023-09-26T20:03:14.911Z,18.10
2023-09-26T20:06:18.875Z,18.10
2023-09-26T20:09:20.827Z,18.00
2023-09-26T20:12:24.448Z,18.00
2023-09-26T20:15:26.927Z,17.90
2023-09-26T20:18:28.765Z,17.90
2023-09-26T20:21:30.534Z,17.90
2023-09-26T20:24:32.551Z,17.80
2023-09-26T20:27:35.246Z,17.80
2023-09-26T20:30:43.957Z,17.80
2023-09-26T20:33:46.100Z,17.70
2023-09-26T20:36:50.921Z,17.70
2023-09-26T20:40:13.416Z,17.70
2023-09-26T20:43:39.709Z,17.70
2023-09-26T20:47:05.238Z,17.50
2023-09-26T20:50:16.496Z,17.50
2023-09-26T20:53:22.413Z,17.40
2023-09-26T20:57:13.442Z,17.40
2023-09-26T21:00:16.430Z,17.30
2023-09-26T21:03:19.692Z,17.30
2023-09-26T21:06:21.632Z,17.40
2023-09-26T21:09:36.928Z,17.30
2023-09-26T21:12:46.285Z,17.30
2023-09-26T21:16:25.870Z,17.20
2023-09-26T21:19:28.078Z,17.20
2023-09-26T21:23:02.808Z,17.20
2023-09-26T21:26:21.928Z,17.30
2023-09-26T21:29:24.149Z,17.40
2023-09-26T21:36:15.404Z,17.30
2023-09-26T21:39:17.397Z,17.30
2023-09-26T21:42:26.020Z,17.20
2023-09-26T21:45:51.765Z,17.20
2023-09-26T21:48:53.862Z,17.20
2023-09-26T21:52:17.725Z,17.10
2023-09-26T21:55:38.167Z,17.10
2023-09-26T21:58:40.272Z,16.90
2023-09-26T22:01:48.448Z,16.90
2023-09-26T22:04:50.669Z,16.90
2023-09-26T22:07:55.661Z,16.90
2023-09-26T22:11:04.625Z,16.90
2023-09-26T22:14:11.030Z,16.80
2023-09-26T22:17:22.449Z,16.90
2023-09-26T22:20:24.497Z,16.80
2023-09-26T22:27:51.369Z,16.60
2023-09-26T22:30:56.401Z,16.60
2023-09-26T22:33:58.675Z,16.60
2023-09-26T22:37:01.356Z,16.60
2023-09-26T22:40:04.375Z,16.60
2023-09-26T22:43:18.107Z,16.50
2023-09-26T22:46:23.651Z,16.40
2023-09-26T22:49:57.200Z,16.30
2023-09-26T22:53:05.687Z,16.30
2023-09-26T22:56:15.076Z,16.40
2023-09-26T22:59:17.647Z,16.30
2023-09-26T23:02:19.744Z,16.30
2023-09-26T23:05:21.783Z,16.30
2023-09-26T23:08:39.386Z,16.20
2023-09-26T23:11:47.439Z,16.20
2023-09-26T23:14:55.067Z,16.20
2023-09-26T23:17:57.149Z,16.20
2023-09-26T23:21:24.138Z,16.10
2023-09-26T23:24:26.078Z,16.10
2023-09-26T23:31:10.793Z,16.10
2023-09-26T23:34:21.822Z,16.10
2023-09-26T23:37:27.474Z,16.00
2023-09-26T23:40:29.426Z,16.00
2023-09-26T23:44:15.486Z,15.90
2023-09-26T23:47:17.525Z,15.90
2023-09-26T23:50:20.276Z,15.90
2023-09-26T23:53:22.331Z,16.00
2023-09-26T23:56:33.479Z,15.90
2023-09-26T23:59:38.606Z,15.90
